Time;durP1;ratioP1;P1;durP2;ratioP2;P2;SDS_P1;SDS_P2;PMS_P1;PMS_P2;Temp;Humidity;BMP_temperature;BMP_pressure;BME280_temperature;BME280_humidity;BME280_pressure;Samples;Min_cycle;Max_cycle;Signal;HPM_P1;HPM_P2
2021/10/29 00:00:18;;;;;;;;;;;20.80;58.90;;;;;;5074134;28;1329;-70
2021/10/29 00:02:44;;;;;;;;;;;20.80;58.90;;;;;;5091862;28;995;-70
2021/10/29 00:05:10;;;;;;;;;;;20.80;59.50;;;;;;5073809;28;1276;-70
2021/10/29 00:07:36;;;;;;;;;;;20.80;58.90;;;;;;5074280;28;1263;-69
2021/10/29 00:10:01;;;;;;;;;;;20.80;58.90;;;;;;5091467;28;1897;-69
2021/10/29 00:12:27;;;;;;;;;;;20.80;58.90;;;;;;5091434;28;1079;-69
2021/10/29 00:14:52;;;;;;;;;;;20.80;58.90;;;;;;5074167;28;1075;-69
2021/10/29 00:17:18;;;;;;;;;;;20.80;59.00;;;;;;5074390;28;1302;-69
2021/10/29 00:19:43;;;;;;;;;;;20.80;59.00;;;;;;5073773;28;1083;-70
2021/10/29 00:22:09;;;;;;;;;;;20.80;59.00;;;;;;5082017;28;1357;-70
2021/10/29 00:24:34;;;;;;;;;;;20.80;59.00;;;;;;5071894;28;1094;-70
2021/10/29 00:27:00;;;;;;;;;;;20.70;59.00;;;;;;5042460;28;1626;-68
2021/10/29 00:29:25;;;;;;;;;;;20.80;59.10;;;;;;5089110;28;1278;-69
2021/10/29 00:31:51;;;;;;;;;;;20.80;59.10;;;;;;5072183;28;1910;-69
2021/10/29 00:34:16;;;;;;;;;;;20.70;59.10;;;;;;5090684;28;1251;-69
2021/10/29 00:36:41;;;;;;;;;;;20.70;59.10;;;;;;5073600;28;1334;-69
2021/10/29 00:39:07;;;;;;;;;;;20.70;59.10;;;;;;5089916;28;1270;-70
2021/10/29 00:41:34;;;;;;;;;;;20.70;59.10;;;;;;5069672;28;1192;-69
2021/10/29 00:44:00;;;;;;;;;;;20.70;59.10;;;;;;5090653;28;1183;-69
2021/10/29 00:46:26;;;;;;;;;;;20.70;59.20;;;;;;5090197;28;1260;-69
2021/10/29 00:48:51;;;;;;;;;;;20.70;59.20;;;;;;5074497;28;1234;-69
2021/10/29 00:51:18;;;;;;;;;;;20.70;59.20;;;;;;5089110;28;1897;-70
2021/10/29 00:53:44;;;;;;;;;;;20.70;59.20;;;;;;5089956;28;1286;-69
2021/10/29 00:56:09;;;;;;;;;;;20.70;59.20;;;;;;5084069;28;1364;-69
2021/10/29 00:58:35;;;;;;;;;;;20.70;59.20;;;;;;5093448;28;1334;-69
2021/10/29 01:01:01;;;;;;;;;;;20.70;59.20;;;;;;5092008;28;1302;-69
2021/10/29 01:03:26;;;;;;;;;;;20.70;59.30;;;;;;5092363;28;1224;-67
2021/10/29 01:05:52;;;;;;;;;;;20.70;59.30;;;;;;5083480;28;1301;-68
2021/10/29 01:08:18;;;;;;;;;;;20.70;59.30;;;;;;5083592;28;1406;-68
2021/10/29 01:10:43;;;;;;;;;;;20.70;59.30;;;;;;5093811;28;1955;-68
2021/10/29 01:13:08;;;;;;;;;;;20.70;59.30;;;;;;5090784;28;1319;-68
2021/10/29 01:15:34;;;;;;;;;;;20.60;59.30;;;;;;5090840;28;1394;-68
2021/10/29 01:17:59;;;;;;;;;;;20.60;59.30;;;;;;5092415;28;1343;-68
2021/10/29 01:20:25;;;;;;;;;;;20.70;59.40;;;;;;5093453;28;1342;-69
2021/10/29 01:22:51;;;;;;;;;;;20.60;59.30;;;;;;5076050;28;1103;-69
2021/10/29 01:25:17;;;;;;;;;;;20.60;59.30;;;;;;5095576;28;1388;-69
2021/10/29 01:27:42;;;;;;;;;;;20.70;60.00;;;;;;5077222;28;1350;-69
2021/10/29 01:30:08;;;;;;;;;;;20.70;59.40;;;;;;5077134;28;1914;-69
2021/10/29 01:32:33;;;;;;;;;;;20.70;59.40;;;;;;5094215;28;1313;-69
2021/10/29 01:34:59;;;;;;;;;;;20.60;59.40;;;;;;5077098;28;1326;-69
2021/10/29 01:37:24;;;;;;;;;;;20.60;59.40;;;;;;5095391;28;1346;-69
2021/10/29 01:39:50;;;;;;;;;;;20.70;59.50;;;;;;5076692;28;1326;-69
2021/10/29 01:42:15;;;;;;;;;;;20.60;59.50;;;;;;5094670;28;1382;-68
2021/10/29 01:44:40;;;;;;;;;;;20.60;59.50;;;;;;5095123;28;1267;-68
2021/10/29 01:47:06;;;;;;;;;;;20.60;59.50;;;;;;5094663;28;1324;-69
2021/10/29 01:49:32;;;;;;;;;;;20.60;59.50;;;;;;5076912;28;1083;-68
2021/10/29 01:51:57;;;;;;;;;;;20.60;59.50;;;;;;5075872;28;1910;-69
2021/10/29 01:54:23;;;;;;;;;;;20.60;59.50;;;;;;5076616;28;1181;-68
2021/10/29 01:56:48;;;;;;;;;;;20.60;59.50;;;;;;5076397;28;1340;-68
2021/10/29 01:59:14;;;;;;;;;;;20.60;59.50;;;;;;5094740;28;1122;-68
2021/10/29 02:01:39;;;;;;;;;;;20.60;59.50;;;;;;5094405;28;1311;-68
2021/10/29 02:04:04;;;;;;;;;;;20.60;59.50;;;;;;5094699;28;1252;-68
2021/10/29 02:06:30;;;;;;;;;;;20.60;59.60;;;;;;5094524;28;1341;-68
2021/10/29 02:08:55;;;;;;;;;;;20.60;59.60;;;;;;5093836;28;1362;-68
2021/10/29 02:11:21;;;;;;;;;;;20.60;59.60;;;;;;5094252;28;1901;-68
2021/10/29 02:13:46;;;;;;;;;;;20.60;59.60;;;;;;5094731;28;1244;-69
2021/10/29 02:16:12;;;;;;;;;;;20.60;59.70;;;;;;5094016;28;1298;-69
2021/10/29 02:18:37;;;;;;;;;;;20.60;59.70;;;;;;5094307;28;1243;-69
2021/10/29 02:21:03;;;;;;;;;;;20.60;59.70;;;;;;5074886;28;1339;-68
2021/10/29 02:23:28;;;;;;;;;;;20.60;60.30;;;;;;5074147;28;1281;-69
2021/10/29 02:25:53;;;;;;;;;;;20.60;59.70;;;;;;5074133;28;1807;-70
2021/10/29 02:28:19;;;;;;;;;;;20.60;59.70;;;;;;5074073;28;1261;-70
2021/10/29 02:30:45;;;;;;;;;;;20.60;60.40;;;;;;5073167;28;1987;-67
2021/10/29 02:33:11;;;;;;;;;;;20.50;59.70;;;;;;5075864;28;1393;-69
2021/10/29 02:35:36;;;;;;;;;;;20.50;59.70;;;;;;5075883;28;1468;-69
2021/10/29 02:38:02;;;;;;;;;;;20.50;59.70;;;;;;5075621;28;1383;-70
2021/10/29 02:40:27;;;;;;;;;;;20.60;59.80;;;;;;5093846;28;1492;-70
2021/10/29 02:42:53;;;;;;;;;;;20.60;59.80;;;;;;5093221;28;1728;-69
2021/10/29 02:45:18;;;;;;;;;;;20.50;59.70;;;;;;5093611;28;1333;-69
2021/10/29 02:47:47;;;;;;;;;;;20.50;59.70;;;;;;5092270;28;1230;-70
2021/10/29 02:50:13;;;;;;;;;;;20.60;59.80;;;;;;5093423;28;1969;-70
2021/10/29 02:52:38;;;;;;;;;;;20.50;59.80;;;;;;5092857;28;1346;-69
2021/10/29 02:55:04;;;;;;;;;;;20.50;59.80;;;;;;5093616;28;1381;-70
2021/10/29 02:57:29;;;;;;;;;;;20.50;59.80;;;;;;5093568;28;1161;-68
2021/10/29 02:59:55;;;;;;;;;;;20.50;59.80;;;;;;5093734;28;1082;-70
2021/10/29 03:02:20;;;;;;;;;;;20.50;59.80;;;;;;5092541;28;1139;-69
2021/10/29 03:04:46;;;;;;;;;;;20.50;59.80;;;;;;5093417;28;1343;-69
2021/10/29 03:07:11;;;;;;;;;;;20.50;59.80;;;;;;5093393;28;1396;-70
2021/10/29 03:09:36;;;;;;;;;;;20.50;59.90;;;;;;5093408;28;1296;-69
2021/10/29 03:12:02;;;;;;;;;;;20.50;59.90;;;;;;5092443;28;1973;-69
2021/10/29 03:14:27;;;;;;;;;;;20.50;59.80;;;;;;5093498;28;1243;-68
2021/10/29 03:16:53;;;;;;;;;;;20.50;59.90;;;;;;5074402;28;1280;-69
2021/10/29 03:19:19;;;;;;;;;;;20.50;59.90;;;;;;5093154;28;1154;-70
2021/10/29 03:21:44;;;;;;;;;;;20.50;59.90;;;;;;5086237;28;1265;-69
2021/10/29 03:24:09;;;;;;;;;;;20.50;59.90;;;;;;5072722;28;1318;-69
2021/10/29 03:26:35;;;;;;;;;;;20.50;59.90;;;;;;5072604;28;1374;-69
2021/10/29 03:29:00;;;;;;;;;;;20.50;59.90;;;;;;5072782;28;1269;-69
2021/10/29 03:31:26;;;;;;;;;;;20.50;59.90;;;;;;5077811;28;1967;-70
2021/10/29 03:33:51;;;;;;;;;;;20.50;59.90;;;;;;5092917;28;1118;-69
2021/10/29 03:36:17;;;;;;;;;;;20.50;59.90;;;;;;5074325;28;1370;-69
2021/10/29 03:41:25;;;;;;;;;;;20.50;59.90;;;;;;5071983;28;1281;-69
2021/10/29 03:43:55;;;;;;;;;;;20.50;60.00;;;;;;5072468;28;1314;-70
2021/10/29 03:46:30;;;;;;;;;;;20.50;60.00;;;;;;5054931;28;1353;-70
2021/10/29 03:49:16;;;;;;;;;;;20.50;60.00;;;;;;5073401;28;1284;-70
2021/10/29 03:51:46;;;;;;;;;;;20.50;60.00;;;;;;5068695;28;1963;-70
2021/10/29 03:54:20;;;;;;;;;;;20.50;60.00;;;;;;5075242;28;1411;-71
2021/10/29 03:56:55;;;;;;;;;;;20.50;60.00;;;;;;5092428;28;1373;-69
2021/10/29 03:59:20;;;;;;;;;;;20.50;60.10;;;;;;5092433;28;1296;-70
2021/10/29 04:01:46;;;;;;;;;;;20.50;60.00;;;;;;5092691;28;1414;-70
2021/10/29 04:04:11;;;;;;;;;;;20.50;60.10;;;;;;5093390;28;1344;-70
2021/10/29 04:06:37;;;;;;;;;;;20.50;60.10;;;;;;5093364;28;1850;-69
2021/10/29 04:09:02;;;;;;;;;;;20.50;60.10;;;;;;5092844;28;1375;-69
2021/10/29 04:11:34;;;;;;;;;;;20.50;60.10;;;;;;5073618;28;1906;-70
2021/10/29 04:13:59;;;;;;;;;;;20.50;60.10;;;;;;5092979;28;1055;-69
2021/10/29 04:16:25;;;;;;;;;;;20.40;60.00;;;;;;5092785;28;1281;-69
2021/10/29 04:18:50;;;;;;;;;;;20.40;60.10;;;;;;5092482;28;1252;-68
2021/10/29 04:21:16;;;;;;;;;;;20.40;60.10;;;;;;5089756;28;1043;-70
2021/10/29 04:23:41;;;;;;;;;;;20.40;60.10;;;;;;5062622;28;1379;-69
2021/10/29 04:26:06;;;;;;;;;;;20.40;60.10;;;;;;5092556;28;1327;-68
2021/10/29 04:28:33;;;;;;;;;;;20.40;60.10;;;;;;5096125;28;1331;-69
2021/10/29 04:31:01;;;;;;;;;;;20.40;60.10;;;;;;5096443;28;1883;-69
2021/10/29 04:33:27;;;;;;;;;;;20.40;60.10;;;;;;5096463;28;1257;-69
2021/10/29 04:35:52;;;;;;;;;;;20.40;60.20;;;;;;5096368;28;1305;-69
2021/10/29 04:38:18;;;;;;;;;;;20.40;60.10;;;;;;5078420;28;1023;-69
2021/10/29 04:40:43;;;;;;;;;;;20.40;60.10;;;;;;5077966;28;1421;-69
2021/10/29 04:43:09;;;;;;;;;;;20.40;60.10;;;;;;5095069;28;1324;-69
2021/10/29 04:45:34;;;;;;;;;;;20.50;60.10;;;;;;5095875;28;1299;-70
2021/10/29 04:48:00;;;;;;;;;;;20.50;60.00;;;;;;5096200;28;1253;-69
2021/10/29 04:50:26;;;;;;;;;;;20.50;59.90;;;;;;5078047;28;1910;-69
2021/10/29 04:52:51;;;;;;;;;;;20.60;59.90;;;;;;5077403;28;1071;-70
2021/10/29 04:55:16;;;;;;;;;;;20.60;59.80;;;;;;5095385;28;1298;-69
2021/10/29 04:57:42;;;;;;;;;;;20.60;59.80;;;;;;5095627;28;1259;-70
2021/10/29 05:00:08;;;;;;;;;;;20.60;59.60;;;;;;5095976;28;1335;-70
2021/10/29 05:02:33;;;;;;;;;;;20.70;59.60;;;;;;5094992;28;1287;-70
2021/10/29 05:05:00;;;;;;;;;;;20.70;59.50;;;;;;5095690;28;1338;-70
2021/10/29 05:07:25;;;;;;;;;;;20.70;59.40;;;;;;5096458;28;1415;-70
2021/10/29 05:09:51;;;;;;;;;;;20.70;59.30;;;;;;5095897;28;1034;-70
2021/10/29 05:12:16;;;;;;;;;;;20.80;59.30;;;;;;5094386;28;1898;-69
2021/10/29 05:14:41;;;;;;;;;;;20.80;59.20;;;;;;5095519;28;1312;-69
2021/10/29 05:17:07;;;;;;;;;;;20.80;59.20;;;;;;5095985;28;1384;-70
2021/10/29 05:19:32;;;;;;;;;;;20.80;59.10;;;;;;5095558;28;1209;-69
2021/10/29 05:21:58;;;;;;;;;;;20.90;59.40;;;;;;5087456;28;1087;-70
2021/10/29 05:24:23;;;;;;;;;;;20.90;59.00;;;;;;5071523;28;1404;-70
2021/10/29 05:26:49;;;;;;;;;;;20.90;59.00;;;;;;5095086;28;1250;-70
2021/10/29 05:29:14;;;;;;;;;;;20.90;59.00;;;;;;5095567;28;1500;-70
2021/10/29 05:31:39;;;;;;;;;;;20.90;59.50;;;;;;5094998;28;1910;-69
2021/10/29 05:34:05;;;;;;;;;;;20.90;58.90;;;;;;5095466;28;1253;-68
2021/10/29 05:36:30;;;;;;;;;;;21.00;58.90;;;;;;5095619;28;1358;-69
2021/10/29 05:38:56;;;;;;;;;;;21.00;58.90;;;;;;5095640;28;1265;-69
2021/10/29 05:41:21;;;;;;;;;;;21.00;58.80;;;;;;5094828;28;1271;-70
2021/10/29 05:43:47;;;;;;;;;;;21.00;58.80;;;;;;5096212;28;1302;-69
2021/10/29 05:46:12;;;;;;;;;;;21.00;58.70;;;;;;5095327;28;1317;-69
2021/10/29 05:48:38;;;;;;;;;;;21.00;58.70;;;;;;5095531;28;1401;-69
2021/10/29 05:51:09;;;;;;;;;;;21.00;58.70;;;;;;5094902;28;1964;-69
2021/10/29 05:53:41;;;;;;;;;;;21.00;58.70;;;;;;5095057;28;1302;-69
2021/10/29 05:56:06;;;;;;;;;;;21.00;58.70;;;;;;5078042;28;1349;-69
2021/10/29 05:58:34;;;;;;;;;;;21.10;58.70;;;;;;5095269;28;1170;-70
2021/10/29 06:01:00;;;;;;;;;;;21.00;58.60;;;;;;5093962;28;1276;-69
2021/10/29 06:03:25;;;;;;;;;;;21.10;58.60;;;;;;5094608;28;1377;-70
2021/10/29 06:05:52;;;;;;;;;;;21.10;58.60;;;;;;5094642;28;1327;-70
2021/10/29 06:08:18;;;;;;;;;;;21.10;58.60;;;;;;5094496;28;1018;-71
2021/10/29 06:10:43;;;;;;;;;;;21.10;58.60;;;;;;5095255;28;2000;-69
2021/10/29 06:13:08;;;;;;;;;;;21.10;58.60;;;;;;5094495;28;1648;-69
2021/10/29 06:15:36;;;;;;;;;;;21.10;58.50;;;;;;5094286;28;1402;-70
2021/10/29 06:18:01;;;;;;;;;;;21.10;58.50;;;;;;5094423;28;1289;-70
2021/10/29 06:20:27;;;;;;;;;;;21.10;58.50;;;;;;5094380;28;1351;-71
2021/10/29 06:22:54;;;;;;;;;;;21.10;58.50;;;;;;5078009;28;1295;-70
2021/10/29 06:25:26;;;;;;;;;;;21.10;58.50;;;;;;5074234;28;1298;-70
2021/10/29 06:30:37;;;;;;;;;;;21.10;58.50;;;;;;5083990;28;1901;-69
2021/10/29 06:33:03;;;;;;;;;;;21.10;58.50;;;;;;5073279;28;1225;-68
2021/10/29 06:35:30;;;;;;;;;;;21.10;58.40;;;;;;5062981;28;1389;-69
2021/10/29 06:37:55;;;;;;;;;;;21.20;58.50;;;;;;5091877;28;1079;-69
2021/10/29 06:40:21;;;;;;;;;;;21.20;58.30;;;;;;5074933;28;1281;-69
2021/10/29 06:42:49;;;;;;;;;;;21.30;58.30;;;;;;5091604;28;1319;-68
2021/10/29 06:48:27;;;;;;;;;;;21.40;58.10;;;;;;5092842;28;1150;-68
2021/10/29 06:59:17;;;;;;;;;;;21.90;57.40;;;;;;5073780;28;1171;-69
2021/10/29 07:01:49;;;;;;;;;;;22.00;57.10;;;;;;5079788;28;1352;-69
2021/10/29 07:42:01;;;;;;;;;;;22.70;55.70;;;;;;5092802;28;1314;-69
2021/10/29 07:44:27;;;;;;;;;;;22.70;55.70;;;;;;5074331;28;1414;-68
2021/10/29 07:46:53;;;;;;;;;;;22.70;55.70;;;;;;5092346;28;1295;-68
2021/10/29 07:49:20;;;;;;;;;;;22.70;55.70;;;;;;5091894;28;1306;-68
2021/10/29 07:51:45;;;;;;;;;;;22.70;55.60;;;;;;5078049;28;1910;-68
2021/10/29 07:54:10;;;;;;;;;;;22.60;55.60;;;;;;5071335;28;1305;-68
2021/10/29 07:56:36;;;;;;;;;;;22.60;55.60;;;;;;5071883;28;1295;-69
2021/10/29 07:59:02;;;;;;;;;;;22.60;55.60;;;;;;5071609;28;1332;-69
2021/10/29 08:01:27;;;;;;;;;;;22.60;55.60;;;;;;5070025;28;1942;-69
2021/10/29 08:03:53;;;;;;;;;;;22.70;55.70;;;;;;5071731;28;1342;-69
2021/10/29 08:06:18;;;;;;;;;;;22.60;55.70;;;;;;5071168;28;1346;-69
2021/10/29 08:08:45;;;;;;;;;;;22.60;55.70;;;;;;5090888;28;1175;-70
2021/10/29 08:11:10;;;;;;;;;;;22.60;55.70;;;;;;5095879;28;1325;-69
2021/10/29 08:13:36;;;;;;;;;;;22.60;55.80;;;;;;5095535;28;1257;-68
2021/10/29 08:16:04;;;;;;;;;;;22.60;55.80;;;;;;5095397;28;1296;-69
2021/10/29 08:18:30;;;;;;;;;;;22.60;55.80;;;;;;5095699;28;1298;-68
2021/10/29 08:20:56;;;;;;;;;;;22.60;56.30;;;;;;5091114;28;1981;-69
2021/10/29 08:23:22;;;;;;;;;;;22.50;55.90;;;;;;5071987;28;1350;-69
2021/10/29 08:25:48;;;;;;;;;;;22.50;56.00;;;;;;5070451;28;1296;-69
2021/10/29 08:28:14;;;;;;;;;;;22.50;56.00;;;;;;5070543;28;1334;-69
2021/10/29 08:30:39;;;;;;;;;;;22.50;56.10;;;;;;5070954;28;1330;-69
2021/10/29 08:33:05;;;;;;;;;;;22.40;56.10;;;;;;5070241;28;1366;-69
2021/10/29 08:35:30;;;;;;;;;;;22.50;56.20;;;;;;5070787;28;1396;-69
2021/10/29 08:37:56;;;;;;;;;;;22.40;56.20;;;;;;5070712;28;1324;-68
2021/10/29 08:40:22;;;;;;;;;;;22.40;56.20;;;;;;5070706;28;1902;-69
2021/10/29 08:42:48;;;;;;;;;;;22.40;56.30;;;;;;5070152;28;1210;-68
2021/10/29 08:45:13;;;;;;;;;;;22.40;56.30;;;;;;5065273;28;1383;-67
2021/10/29 08:47:42;;;;;;;;;;;22.40;56.40;;;;;;5082360;28;1193;-69
2021/10/29 08:50:08;;;;;;;;;;;22.30;56.40;;;;;;5063759;28;2017;-69
2021/10/29 08:52:34;;;;;;;;;;;22.30;56.50;;;;;;5087258;28;1383;-69
2021/10/29 08:55:00;;;;;;;;;;;22.30;56.50;;;;;;5088937;28;943;-69
2021/10/29 08:57:27;;;;;;;;;;;22.30;56.50;;;;;;5083745;28;1452;-69
2021/10/29 08:59:55;;;;;;;;;;;22.30;56.60;;;;;;5092010;28;1241;-69
2021/10/29 09:31:58;;;;;;;;;;;22.10;56.50;;;;;;5094657;28;1151;-70
2021/10/29 09:34:23;;;;;;;;;;;22.10;55.60;;;;;;5077139;28;1296;-70
2021/10/29 09:36:52;;;;;;;;;;;22.00;55.00;;;;;;5076653;28;1231;-69
2021/10/29 09:39:24;;;;;;;;;;;22.00;54.70;;;;;;5091931;28;1177;-70
2021/10/29 09:42:03;;;;;;;;;;;21.90;53.70;;;;;;5075032;28;1914;-70
2021/10/29 09:44:37;;;;;;;;;;;21.90;53.50;;;;;;5076249;28;1202;-71
2021/10/29 09:47:04;;;;;;;;;;;21.80;53.40;;;;;;5094947;28;1207;-71
2021/10/29 09:49:52;;;;;;;;;;;21.80;53.10;;;;;;5077509;28;1059;-71
2021/10/29 09:57:24;;;;;;;;;;;21.70;52.80;;;;;;5094502;28;1456;-71
2021/10/29 09:59:50;;;;;;;;;;;21.60;52.90;;;;;;5095006;28;1129;-70
2021/10/29 10:02:22;;;;;;;;;;;21.60;52.70;;;;;;5094340;28;1906;-70
2021/10/29 10:04:48;;;;;;;;;;;21.60;52.80;;;;;;5077249;28;1154;-73
2021/10/29 10:07:14;;;;;;;;;;;21.60;52.80;;;;;;5074407;28;1373;-70
2021/10/29 10:09:40;;;;;;;;;;;21.60;52.60;;;;;;5094389;28;1211;-69
2021/10/29 10:12:06;;;;;;;;;;;21.50;52.60;;;;;;5072800;28;1800;-70
2021/10/29 10:14:32;;;;;;;;;;;21.50;52.50;;;;;;5076522;28;1258;-72
2021/10/29 10:16:57;;;;;;;;;;;21.50;52.40;;;;;;5075903;28;1360;-72
2021/10/29 10:19:23;;;;;;;;;;;21.50;51.30;;;;;;5078734;28;1451;-73
2021/10/29 10:21:53;;;;;;;;;;;21.40;51.20;;;;;;5072242;28;1910;-71
2021/10/29 10:24:22;;;;;;;;;;;21.40;51.30;;;;;;5087298;28;1134;-70
2021/10/29 10:29:48;;;;;;;;;;;21.30;50.90;;;;;;5091075;28;1282;-70
2021/10/29 10:43:20;;;;;;;;;;;21.30;49.60;;;;;;5076114;28;2019;-71
2021/10/29 10:46:19;;;;;;;;;;;21.30;49.60;;;;;;5090162;28;1394;-72
2021/10/29 10:49:03;;;;;;;;;;;21.20;49.50;;;;;;5087244;28;1235;-72
2021/10/29 10:51:46;;;;;;;;;;;21.20;49.40;;;;;;5093367;28;1291;-72
2021/10/29 10:54:26;;;;;;;;;;;21.20;48.70;;;;;;5093051;28;1174;-72
2021/10/29 10:59:32;;;;;;;;;;;21.10;49.30;;;;;;5076960;28;1283;-73
2021/10/29 11:02:27;;;;;;;;;;;21.10;49.90;;;;;;5058932;28;1906;-72
2021/10/29 11:06:01;;;;;;;;;;;21.10;49.80;;;;;;5092878;28;1253;-72
2021/10/29 11:10:41;;;;;;;;;;;21.00;49.60;;;;;;5077437;28;1167;-72
2021/10/29 11:13:07;;;;;;;;;;;21.00;49.40;;;;;;5092553;28;1314;-72
2021/10/29 11:15:32;;;;;;;;;;;21.00;49.40;;;;;;5074875;28;1295;-72
2021/10/29 11:18:02;;;;;;;;;;;21.00;48.90;;;;;;5093004;28;1094;-72
2021/10/29 11:20:57;;;;;;;;;;;20.90;49.50;;;;;;5093208;28;1902;-72
2021/10/29 11:23:23;;;;;;;;;;;20.90;50.30;;;;;;5073653;28;1477;-72
2021/10/29 11:26:01;;;;;;;;;;;20.90;50.00;;;;;;5067186;28;1438;-72
2021/10/29 11:28:31;;;;;;;;;;;20.90;48.70;;;;;;5076141;28;1283;-73
2021/10/29 11:30:56;;;;;;;;;;;20.90;48.30;;;;;;5075105;28;1083;-72
2021/10/29 11:33:22;;;;;;;;;;;20.90;47.50;;;;;;5092947;28;1325;-72
2021/10/29 11:35:58;;;;;;;;;;;20.90;47.60;;;;;;5074390;28;1282;-73
2021/10/29 11:38:23;;;;;;;;;;;20.80;47.70;;;;;;5074673;28;1095;-73
2021/10/29 11:40:50;;;;;;;;;;;20.80;47.30;;;;;;5092031;28;1914;-73
2021/10/29 11:43:26;;;;;;;;;;;20.80;47.40;;;;;;5074121;28;1410;-73
2021/10/29 11:45:53;;;;;;;;;;;20.80;46.90;;;;;;5074339;28;1445;-73
2021/10/29 11:48:18;;;;;;;;;;;20.70;46.30;;;;;;5092704;28;1423;-73
2021/10/29 11:50:44;;;;;;;;;;;20.70;46.90;;;;;;5074528;28;1276;-73
2021/10/29 11:53:09;;;;;;;;;;;20.70;46.20;;;;;;5092315;28;1259;-73
2021/10/29 11:55:44;;;;;;;;;;;20.70;46.60;;;;;;5091873;28;1374;-73
2021/10/29 11:58:18;;;;;;;;;;;20.60;48.80;;;;;;5092916;28;1313;-73
2021/10/29 12:01:09;;;;;;;;;;;20.60;49.40;;;;;;5075664;28;1969;-73
2021/10/29 12:07:13;;;;;;;;;;;20.60;49.90;;;;;;5092048;28;1297;-73
2021/10/29 12:09:02;;;;;;;;;;;20.60;50.80;;;;;;5083528;28;1340;-73
2021/10/29 12:11:28;;;;;;;;;;;20.60;51.10;;;;;;5085909;28;1760;-73
2021/10/29 12:13:54;;;;;;;;;;;20.60;51.10;;;;;;5089925;28;1254;-73
2021/10/29 12:16:22;;;;;;;;;;;20.60;51.60;;;;;;5073067;28;1285;-73
2021/10/29 12:18:57;;;;;;;;;;;20.60;51.50;;;;;;5091283;28;1316;-74
2021/10/29 12:21:24;;;;;;;;;;;20.60;51.80;;;;;;5072716;28;1905;-74
2021/10/29 12:23:51;;;;;;;;;;;20.60;51.70;;;;;;5090814;28;1273;-74
2021/10/29 12:26:17;;;;;;;;;;;20.60;51.20;;;;;;5072624;28;1446;-72
2021/10/29 12:28:44;;;;;;;;;;;20.60;52.00;;;;;;5090417;28;1371;-71
2021/10/29 13:03:02;;;;;;;;;;;20.60;50.40;;;;;;5088771;28;1086;-70
2021/10/29 13:05:27;;;;;;;;;;;20.50;50.70;;;;;;5092020;28;1314;-70
2021/10/29 13:07:53;;;;;;;;;;;20.50;50.70;;;;;;5093499;28;1278;-71
2021/10/29 13:10:18;;;;;;;;;;;20.50;50.60;;;;;;5093241;28;1220;-71
2021/10/29 13:15:12;;;;;;;;;;;20.50;51.00;;;;;;5093143;28;1294;-71
2021/10/29 13:17:44;;;;;;;;;;;20.50;51.30;;;;;;5076291;28;1424;-71
2021/10/29 13:36:36;;;;;;;;;;;20.50;51.00;;;;;;5094773;28;1319;-71
2021/10/29 13:50:24;;;;;;;;;;;20.50;50.60;;;;;;5094804;28;1976;-70
2021/10/29 13:52:52;;;;;;;;;;;20.50;50.90;;;;;;5075551;28;1313;-70
2021/10/29 13:55:31;;;;;;;;;;;20.40;50.90;;;;;;5078291;28;1414;-71
2021/10/29 14:01:04;;;;;;;;;;;20.40;51.20;;;;;;5093788;28;1936;-71
2021/10/29 14:30:08;;;;;;;;;;;20.40;51.70;;;;;;5094314;28;1111;-70
2021/10/29 14:35:00;;;;;;;;;;;20.40;51.50;;;;;;5094266;28;1051;-70
2021/10/29 14:42:36;;;;;;;;;;;20.40;52.20;;;;;;5092354;28;1968;-70
2021/10/29 14:45:17;;;;;;;;;;;20.50;52.30;;;;;;5075460;28;1243;-70
2021/10/29 14:53:29;;;;;;;;;;;20.70;52.80;;;;;;5086171;28;1543;-70
2021/10/29 15:01:53;;;;;;;;;;;20.90;52.80;;;;;;5092551;28;1956;-70
2021/10/29 15:07:18;;;;;;;;;;;21.10;52.40;;;;;;5073853;28;1373;-69
2021/10/29 15:15:48;;;;;;;;;;;21.40;52.00;;;;;;5093130;28;1274;-69
2021/10/29 15:18:24;;;;;;;;;;;21.40;51.80;;;;;;5093343;28;1361;-69
2021/10/29 15:29:00;;;;;;;;;;;21.60;51.70;;;;;;5092941;28;1083;-69
2021/10/29 15:31:49;;;;;;;;;;;21.70;51.70;;;;;;5092048;28;1312;-69
2021/10/29 15:43:01;;;;;;;;;;;21.90;51.50;;;;;;5092194;28;1969;-69
2021/10/29 15:45:36;;;;;;;;;;;21.90;51.40;;;;;;5076594;28;1380;-69
2021/10/29 15:48:08;;;;;;;;;;;22.00;51.50;;;;;;5091343;28;1672;-69
2021/10/29 15:50:35;;;;;;;;;;;22.00;51.40;;;;;;5092466;28;1303;-69
2021/10/29 15:53:04;;;;;;;;;;;22.10;51.50;;;;;;5091758;28;1082;-69
2021/10/29 15:55:51;;;;;;;;;;;22.10;51.40;;;;;;5074350;28;1404;-69
2021/10/29 16:17:10;;;;;;;;;;;22.20;51.40;;;;;;5064119;28;1643;-69
2021/10/29 16:19:36;;;;;;;;;;;22.20;51.30;;;;;;5085351;28;1317;-69
2021/10/29 16:22:06;;;;;;;;;;;22.20;51.40;;;;;;5064108;28;1902;-69
2021/10/29 16:24:32;;;;;;;;;;;22.20;51.40;;;;;;5055040;28;1342;-69
2021/10/29 16:26:59;;;;;;;;;;;22.20;51.40;;;;;;5091194;28;1218;-69
2021/10/29 16:29:25;;;;;;;;;;;22.20;51.40;;;;;;5091010;28;1279;-69
2021/10/29 16:31:51;;;;;;;;;;;22.20;51.40;;;;;;5055789;28;1318;-68
2021/10/29 16:34:16;;;;;;;;;;;22.20;51.50;;;;;;5090839;28;1326;-69
2021/10/29 16:36:42;;;;;;;;;;;22.20;51.50;;;;;;5090842;28;1356;-69
2021/10/29 16:39:07;;;;;;;;;;;22.10;51.60;;;;;;5091811;28;1357;-69
2021/10/29 16:41:33;;;;;;;;;;;22.10;51.60;;;;;;5090953;28;1901;-69
2021/10/29 16:43:58;;;;;;;;;;;22.10;51.60;;;;;;5090671;28;1301;-69
2021/10/29 16:46:24;;;;;;;;;;;22.10;51.70;;;;;;5090396;28;1400;-69
2021/10/29 16:48:49;;;;;;;;;;;22.10;51.70;;;;;;5091244;28;1316;-69
2021/10/29 16:51:15;;;;;;;;;;;22.10;51.80;;;;;;5090848;28;1277;-69
2021/10/29 16:53:41;;;;;;;;;;;22.10;51.80;;;;;;5072202;28;1368;-70
2021/10/29 16:56:06;;;;;;;;;;;22.10;51.90;;;;;;5090601;28;1317;-70
2021/10/29 16:58:32;;;;;;;;;;;22.10;52.00;;;;;;5090161;28;1220;-70
2021/10/29 17:00:57;;;;;;;;;;;22.10;52.00;;;;;;5072028;28;1890;-69
2021/10/29 17:03:24;;;;;;;;;;;22.00;52.00;;;;;;5072778;28;1315;-69
2021/10/29 17:05:50;;;;;;;;;;;22.00;52.00;;;;;;5090991;28;1368;-68
2021/10/29 17:08:16;;;;;;;;;;;22.00;52.10;;;;;;5090875;28;1320;-67
2021/10/29 17:10:41;;;;;;;;;;;22.00;52.10;;;;;;5092165;28;1319;-67
2021/10/29 17:13:07;;;;;;;;;;;22.00;52.20;;;;;;5072184;28;1270;-68
2021/10/29 17:15:33;;;;;;;;;;;22.00;52.20;;;;;;5065374;28;1337;-68
2021/10/29 17:17:59;;;;;;;;;;;22.00;52.20;;;;;;5086300;28;1280;-68
2021/10/29 17:20:25;;;;;;;;;;;22.00;52.30;;;;;;5091345;28;1247;-68
2021/10/29 17:22:50;;;;;;;;;;;22.00;52.40;;;;;;5075491;28;1910;-68
2021/10/29 17:25:16;;;;;;;;;;;22.00;52.40;;;;;;5071087;28;1368;-68
2021/10/29 17:27:41;;;;;;;;;;;22.00;52.50;;;;;;5065593;28;1681;-69
2021/10/29 17:30:07;;;;;;;;;;;22.00;52.50;;;;;;5078900;28;1896;-70
2021/10/29 17:32:33;;;;;;;;;;;22.00;52.50;;;;;;5065474;28;2018;-69
2021/10/29 17:34:59;;;;;;;;;;;22.00;52.60;;;;;;5066369;28;1099;-69
2021/10/29 17:37:28;;;;;;;;;;;22.00;52.60;;;;;;5068884;28;1598;-69
2021/10/29 17:39:53;;;;;;;;;;;21.90;52.60;;;;;;5090943;28;1207;-69
2021/10/29 17:42:19;;;;;;;;;;;21.90;52.60;;;;;;5072111;28;1895;-69
2021/10/29 17:44:44;;;;;;;;;;;21.90;52.70;;;;;;5090040;28;1416;-69
2021/10/29 17:47:10;;;;;;;;;;;21.90;52.60;;;;;;5073881;28;1286;-68
2021/10/29 17:49:35;;;;;;;;;;;21.90;52.70;;;;;;5093740;28;1210;-70
2021/10/29 17:52:03;;;;;;;;;;;21.90;52.70;;;;;;5091201;28;1232;-69
2021/10/29 17:54:36;;;;;;;;;;;21.90;52.70;;;;;;5074701;28;1176;-69
2021/10/29 17:57:02;;;;;;;;;;;21.90;52.80;;;;;;5090450;28;1292;-70
2021/10/29 17:59:28;;;;;;;;;;;21.90;52.80;;;;;;5090696;28;1210;-69
2021/10/29 18:01:53;;;;;;;;;;;21.90;52.80;;;;;;5090311;28;1972;-70
2021/10/29 18:04:19;;;;;;;;;;;21.90;52.80;;;;;;5087525;28;1231;-69
2021/10/29 18:06:44;;;;;;;;;;;21.90;52.90;;;;;;5092023;28;1362;-68
2021/10/29 18:09:10;;;;;;;;;;;21.90;52.90;;;;;;5083134;28;1079;-69
2021/10/29 18:11:36;;;;;;;;;;;21.90;53.00;;;;;;5091063;28;1918;-69
2021/10/29 18:14:03;;;;;;;;;;;21.90;53.00;;;;;;5089710;28;1251;-68
2021/10/29 18:16:30;;;;;;;;;;;21.90;53.00;;;;;;5069462;28;1375;-68
2021/10/29 18:18:57;;;;;;;;;;;21.90;53.10;;;;;;5094206;28;1111;-69
2021/10/29 18:21:22;;;;;;;;;;;21.90;53.10;;;;;;5079577;28;1906;-69
2021/10/29 18:23:52;;;;;;;;;;;21.90;53.10;;;;;;5084530;28;1295;-69
2021/10/29 18:26:21;;;;;;;;;;;21.80;53.10;;;;;;5087001;28;1445;-69
2021/10/29 18:28:47;;;;;;;;;;;21.80;53.10;;;;;;5045861;28;1377;-69
2021/10/29 18:31:12;;;;;;;;;;;21.90;53.20;;;;;;5072540;28;1302;-69
2021/10/29 18:33:38;;;;;;;;;;;21.80;53.20;;;;;;5094133;28;1082;-69
2021/10/29 18:36:03;;;;;;;;;;;21.80;53.20;;;;;;5089414;28;1519;-69
2021/10/29 18:38:30;;;;;;;;;;;21.80;53.20;;;;;;5091727;28;1327;-68
2021/10/29 18:40:56;;;;;;;;;;;21.80;53.30;;;;;;5093639;28;1918;-69
2021/10/29 18:43:21;;;;;;;;;;;21.80;53.30;;;;;;5093819;28;1261;-69
2021/10/29 18:45:47;;;;;;;;;;;21.80;53.30;;;;;;5090324;28;1284;-69
2021/10/29 18:48:12;;;;;;;;;;;21.80;53.40;;;;;;5093697;28;1301;-69
2021/10/29 18:50:38;;;;;;;;;;;21.80;53.40;;;;;;5080221;28;1273;-69
2021/10/29 18:53:04;;;;;;;;;;;21.80;53.50;;;;;;5092491;28;1264;-70
2021/10/29 18:55:29;;;;;;;;;;;21.80;53.50;;;;;;5073724;28;1283;-70
2021/10/29 18:57:55;;;;;;;;;;;21.80;53.50;;;;;;5074740;28;1361;-69